sensor_id;sensor_type;location;lat;lon;timestamp;P1;durP1;ratioP1;P2;durP2;ratioP2
42104;SDS011;70664;51.472;5.712;2023-08-30T00:00:55;2.90;;;1.80;;
42104;SDS011;70664;51.472;5.712;2023-08-30T00:03:21;2.75;;;2.17;;
42104;SDS011;70664;51.472;5.712;2023-08-30T00:05:46;3.45;;;1.90;;
42104;SDS011;70664;51.472;5.712;2023-08-30T00:08:12;3.28;;;1.90;;
42104;SDS011;70664;51.472;5.712;2023-08-30T00:10:48;4.45;;;1.80;;
42104;SDS011;70664;51.472;5.712;2023-08-30T00:13:14;3.40;;;1.85;;
42104;SDS011;70664;51.472;5.712;2023-08-30T00:15:40;3.80;;;2.05;;
42104;SDS011;70664;51.472;5.712;2023-08-30T00:18:05;2.42;;;1.90;;
42104;SDS011;70664;51.472;5.712;2023-08-30T00:20:31;3.03;;;1.92;;
42104;SDS011;70664;51.472;5.712;2023-08-30T00:22:57;4.53;;;2.03;;
42104;SDS011;70664;51.472;5.712;2023-08-30T00:25:23;2.97;;;2.10;;
42104;SDS011;70664;51.472;5.712;2023-08-30T00:27:48;3.05;;;2.08;;
42104;SDS011;70664;51.472;5.712;2023-08-30T00:30:14;2.60;;;1.80;;
42104;SDS011;70664;51.472;5.712;2023-08-30T00:32:40;2.22;;;1.63;;
42104;SDS011;70664;51.472;5.712;2023-08-30T00:35:06;2.05;;;1.60;;
42104;SDS011;70664;51.472;5.712;2023-08-30T00:37:32;3.40;;;2.08;;
42104;SDS011;70664;51.472;5.712;2023-08-30T00:39:58;3.33;;;2.10;;
42104;SDS011;70664;51.472;5.712;2023-08-30T00:42:24;2.08;;;1.85;;
42104;SDS011;70664;51.472;5.712;2023-08-30T00:44:51;2.97;;;1.92;;
42104;SDS011;70664;51.472;5.712;2023-08-30T00:47:16;3.67;;;1.80;;
42104;SDS011;70664;51.472;5.712;2023-08-30T00:49:42;3.45;;;1.80;;
42104;SDS011;70664;51.472;5.712;2023-08-30T00:52:09;2.60;;;1.90;;
42104;SDS011;70664;51.472;5.712;2023-08-30T00:54:35;4.03;;;1.90;;
42104;SDS011;70664;51.472;5.712;2023-08-30T00:57:02;3.88;;;2.03;;
42104;SDS011;70664;51.472;5.712;2023-08-30T00:59:29;2.47;;;1.75;;
42104;SDS011;70664;51.472;5.712;2023-08-30T01:01:58;3.50;;;2.00;;
42104;SDS011;70664;51.472;5.712;2023-08-30T01:04:28;2.17;;;1.70;;
42104;SDS011;70664;51.472;5.712;2023-08-30T01:06:54;2.33;;;1.73;;
42104;SDS011;70664;51.472;5.712;2023-08-30T01:09:20;3.65;;;1.90;;
42104;SDS011;70664;51.472;5.712;2023-08-30T01:14:35;2.80;;;1.90;;
42104;SDS011;70664;51.472;5.712;2023-08-30T01:17:11;4.00;;;2.25;;
42104;SDS011;70664;51.472;5.712;2023-08-30T01:19:51;2.10;;;1.63;;
42104;SDS011;70664;51.472;5.712;2023-08-30T01:31:06;6.00;;;1.90;;
42104;SDS011;70664;51.472;5.712;2023-08-30T01:33:34;2.17;;;1.75;;
42104;SDS011;70664;51.472;5.712;2023-08-30T01:36:01;2.67;;;1.70;;
42104;SDS011;70664;51.472;5.712;2023-08-30T01:38:29;2.15;;;1.73;;
42104;SDS011;70664;51.472;5.712;2023-08-30T01:40:57;3.30;;;1.90;;
42104;SDS011;70664;51.472;5.712;2023-08-30T01:43:25;3.38;;;2.00;;
42104;SDS011;70664;51.472;5.712;2023-08-30T01:45:55;5.97;;;1.83;;
42104;SDS011;70664;51.472;5.712;2023-08-30T01:48:25;3.17;;;1.85;;
42104;SDS011;70664;51.472;5.712;2023-08-30T01:50:52;3.30;;;1.73;;
42104;SDS011;70664;51.472;5.712;2023-08-30T01:53:23;2.92;;;2.05;;
42104;SDS011;70664;51.472;5.712;2023-08-30T01:55:49;2.53;;;1.80;;
42104;SDS011;70664;51.472;5.712;2023-08-30T01:58:15;2.50;;;1.90;;
42104;SDS011;70664;51.472;5.712;2023-08-30T02:00:41;3.28;;;1.80;;
42104;SDS011;70664;51.472;5.712;2023-08-30T02:03:10;2.53;;;1.70;;
42104;SDS011;70664;51.472;5.712;2023-08-30T02:08:49;1.77;;;1.58;;
42104;SDS011;70664;51.472;5.712;2023-08-30T02:11:23;2.97;;;1.63;;
42104;SDS011;70664;51.472;5.712;2023-08-30T02:13:53;2.83;;;1.88;;
42104;SDS011;70664;51.472;5.712;2023-08-30T02:16:23;2.80;;;1.95;;
42104;SDS011;70664;51.472;5.712;2023-08-30T02:18:53;3.13;;;1.70;;
42104;SDS011;70664;51.472;5.712;2023-08-30T02:21:20;2.15;;;1.80;;
42104;SDS011;70664;51.472;5.712;2023-08-30T02:23:49;2.05;;;1.50;;
42104;SDS011;70664;51.472;5.712;2023-08-30T02:26:17;2.40;;;1.70;;
42104;SDS011;70664;51.472;5.712;2023-08-30T02:28:44;2.55;;;1.90;;
42104;SDS011;70664;51.472;5.712;2023-08-30T02:31:10;2.15;;;1.95;;
42104;SDS011;70664;51.472;5.712;2023-08-30T02:33:36;3.13;;;1.83;;
42104;SDS011;70664;51.472;5.712;2023-08-30T02:36:05;3.45;;;2.03;;
42104;SDS011;70664;51.472;5.712;2023-08-30T02:38:31;2.35;;;1.67;;
42104;SDS011;70664;51.472;5.712;2023-08-30T02:40:57;3.88;;;1.98;;
42104;SDS011;70664;51.472;5.712;2023-08-30T02:43:22;3.05;;;1.88;;
42104;SDS011;70664;51.472;5.712;2023-08-30T02:45:48;2.42;;;1.80;;
42104;SDS011;70664;51.472;5.712;2023-08-30T02:48:14;2.25;;;1.70;;
42104;SDS011;70664;51.472;5.712;2023-08-30T02:50:40;2.47;;;1.60;;
42104;SDS011;70664;51.472;5.712;2023-08-30T02:53:06;2.47;;;1.90;;
42104;SDS011;70664;51.472;5.712;2023-08-30T02:55:33;5.03;;;1.92;;
42104;SDS011;70664;51.472;5.712;2023-08-30T02:58:00;2.72;;;1.80;;
42104;SDS011;70664;51.472;5.712;2023-08-30T03:00:25;2.00;;;1.58;;
42104;SDS011;70664;51.472;5.712;2023-08-30T03:02:51;2.42;;;1.70;;
42104;SDS011;70664;51.472;5.712;2023-08-30T03:05:17;1.98;;;1.60;;
42104;SDS011;70664;51.472;5.712;2023-08-30T03:07:43;3.22;;;1.92;;
42104;SDS011;70664;51.472;5.712;2023-08-30T03:10:09;2.17;;;1.55;;
42104;SDS011;70664;51.472;5.712;2023-08-30T03:12:36;2.92;;;1.92;;
42104;SDS011;70664;51.472;5.712;2023-08-30T03:15:02;1.80;;;1.60;;
42104;SDS011;70664;51.472;5.712;2023-08-30T03:17:30;2.25;;;1.60;;
42104;SDS011;70664;51.472;5.712;2023-08-30T03:19:56;2.90;;;1.88;;
42104;SDS011;70664;51.472;5.712;2023-08-30T03:22:22;2.63;;;1.70;;
42104;SDS011;70664;51.472;5.712;2023-08-30T03:24:48;2.17;;;1.60;;
42104;SDS011;70664;51.472;5.712;2023-08-30T03:27:15;1.70;;;1.60;;
42104;SDS011;70664;51.472;5.712;2023-08-30T03:29:41;1.73;;;1.50;;
42104;SDS011;70664;51.472;5.712;2023-08-30T03:32:07;2.05;;;1.73;;
42104;SDS011;70664;51.472;5.712;2023-08-30T03:34:33;2.42;;;1.90;;
42104;SDS011;70664;51.472;5.712;2023-08-30T03:36:59;2.25;;;1.77;;
42104;SDS011;70664;51.472;5.712;2023-08-30T03:39:24;2.65;;;1.80;;
42104;SDS011;70664;51.472;5.712;2023-08-30T03:41:50;2.38;;;1.85;;
42104;SDS011;70664;51.472;5.712;2023-08-30T03:44:16;2.25;;;1.90;;
42104;SDS011;70664;51.472;5.712;2023-08-30T03:46:42;3.67;;;1.88;;
42104;SDS011;70664;51.472;5.712;2023-08-30T03:49:07;3.15;;;1.70;;
42104;SDS011;70664;51.472;5.712;2023-08-30T03:51:33;2.20;;;1.67;;
42104;SDS011;70664;51.472;5.712;2023-08-30T03:53:59;3.22;;;1.75;;
42104;SDS011;70664;51.472;5.712;2023-08-30T03:56:25;2.13;;;1.50;;
42104;SDS011;70664;51.472;5.712;2023-08-30T03:58:51;3.08;;;1.98;;
42104;SDS011;70664;51.472;5.712;2023-08-30T04:01:17;2.47;;;1.77;;
42104;SDS011;70664;51.472;5.712;2023-08-30T04:03:42;2.60;;;1.77;;
42104;SDS011;70664;51.472;5.712;2023-08-30T04:06:08;2.72;;;1.70;;
42104;SDS011;70664;51.472;5.712;2023-08-30T04:08:34;1.98;;;1.60;;
42104;SDS011;70664;51.472;5.712;2023-08-30T04:11:00;2.97;;;1.85;;
42104;SDS011;70664;51.472;5.712;2023-08-30T04:13:27;3.15;;;1.88;;
42104;SDS011;70664;51.472;5.712;2023-08-30T04:15:53;2.42;;;2.03;;
42104;SDS011;70664;51.472;5.712;2023-08-30T04:18:18;2.72;;;1.80;;
42104;SDS011;70664;51.472;5.712;2023-08-30T04:20:45;2.17;;;1.73;;
42104;SDS011;70664;51.472;5.712;2023-08-30T04:23:11;2.13;;;1.60;;
42104;SDS011;70664;51.472;5.712;2023-08-30T04:25:38;2.10;;;1.65;;
42104;SDS011;70664;51.472;5.712;2023-08-30T04:28:04;2.65;;;1.63;;
42104;SDS011;70664;51.472;5.712;2023-08-30T04:30:30;3.28;;;1.95;;
42104;SDS011;70664;51.472;5.712;2023-08-30T04:32:56;2.30;;;1.77;;
42104;SDS011;70664;51.472;5.712;2023-08-30T04:35:22;2.58;;;2.05;;
42104;SDS011;70664;51.472;5.712;2023-08-30T04:37:48;2.78;;;1.90;;
42104;SDS011;70664;51.472;5.712;2023-08-30T04:40:14;2.53;;;1.90;;
42104;SDS011;70664;51.472;5.712;2023-08-30T04:42:40;3.00;;;1.60;;
42104;SDS011;70664;51.472;5.712;2023-08-30T04:45:06;3.13;;;1.90;;
42104;SDS011;70664;51.472;5.712;2023-08-30T04:47:33;4.18;;;1.80;;
42104;SDS011;70664;51.472;5.712;2023-08-30T04:49:59;1.92;;;1.52;;
42104;SDS011;70664;51.472;5.712;2023-08-30T04:52:25;2.05;;;1.65;;
42104;SDS011;70664;51.472;5.712;2023-08-30T04:54:51;3.50;;;1.80;;
42104;SDS011;70664;51.472;5.712;2023-08-30T04:57:17;2.38;;;1.58;;
42104;SDS011;70664;51.472;5.712;2023-08-30T04:59:43;2.80;;;1.88;;
42104;SDS011;70664;51.472;5.712;2023-08-30T05:02:10;2.60;;;1.95;;
42104;SDS011;70664;51.472;5.712;2023-08-30T05:04:36;2.22;;;1.77;;
42104;SDS011;70664;51.472;5.712;2023-08-30T05:07:02;1.90;;;1.50;;
42104;SDS011;70664;51.472;5.712;2023-08-30T05:09:32;3.55;;;1.80;;
42104;SDS011;70664;51.472;5.712;2023-08-30T05:11:59;2.45;;;1.80;;
42104;SDS011;70664;51.472;5.712;2023-08-30T05:14:25;2.50;;;1.98;;
42104;SDS011;70664;51.472;5.712;2023-08-30T05:16:52;1.50;;;1.40;;
42104;SDS011;70664;51.472;5.712;2023-08-30T05:19:18;2.83;;;1.98;;
42104;SDS011;70664;51.472;5.712;2023-08-30T05:21:44;2.10;;;1.85;;
42104;SDS011;70664;51.472;5.712;2023-08-30T05:24:10;2.88;;;2.00;;
42104;SDS011;70664;51.472;5.712;2023-08-30T05:26:36;2.47;;;1.63;;
42104;SDS011;70664;51.472;5.712;2023-08-30T05:29:05;3.03;;;2.00;;
42104;SDS011;70664;51.472;5.712;2023-08-30T05:31:31;2.53;;;1.75;;
42104;SDS011;70664;51.472;5.712;2023-08-30T05:33:57;1.92;;;1.55;;
42104;SDS011;70664;51.472;5.712;2023-08-30T05:36:22;2.35;;;1.70;;
42104;SDS011;70664;51.472;5.712;2023-08-30T05:38:48;2.22;;;1.85;;
42104;SDS011;70664;51.472;5.712;2023-08-30T05:41:14;1.92;;;1.73;;
42104;SDS011;70664;51.472;5.712;2023-08-30T05:43:40;2.45;;;1.83;;
42104;SDS011;70664;51.472;5.712;2023-08-30T05:46:05;3.33;;;1.73;;
42104;SDS011;70664;51.472;5.712;2023-08-30T05:48:37;2.67;;;1.80;;
42104;SDS011;70664;51.472;5.712;2023-08-30T05:51:03;1.88;;;1.67;;
42104;SDS011;70664;51.472;5.712;2023-08-30T05:53:28;2.78;;;1.83;;
42104;SDS011;70664;51.472;5.712;2023-08-30T05:55:54;2.80;;;1.55;;
42104;SDS011;70664;51.472;5.712;2023-08-30T05:58:20;2.42;;;1.80;;
42104;SDS011;70664;51.472;5.712;2023-08-30T06:00:46;2.72;;;1.67;;
42104;SDS011;70664;51.472;5.712;2023-08-30T06:03:12;2.85;;;1.98;;
42104;SDS011;70664;51.472;5.712;2023-08-30T06:05:37;1.60;;;1.50;;
42104;SDS011;70664;51.472;5.712;2023-08-30T06:08:03;2.20;;;1.70;;
42104;SDS011;70664;51.472;5.712;2023-08-30T06:10:29;1.85;;;1.60;;
42104;SDS011;70664;51.472;5.712;2023-08-30T06:12:55;3.78;;;2.03;;
42104;SDS011;70664;51.472;5.712;2023-08-30T06:15:21;2.70;;;1.90;;
42104;SDS011;70664;51.472;5.712;2023-08-30T06:17:47;1.90;;;1.70;;
42104;SDS011;70664;51.472;5.712;2023-08-30T06:20:13;2.13;;;1.85;;
42104;SDS011;70664;51.472;5.712;2023-08-30T06:22:39;3.03;;;1.70;;
42104;SDS011;70664;51.472;5.712;2023-08-30T06:25:07;1.60;;;1.50;;
42104;SDS011;70664;51.472;5.712;2023-08-30T06:27:40;2.42;;;1.67;;
42104;SDS011;70664;51.472;5.712;2023-08-30T06:30:08;2.55;;;2.08;;
42104;SDS011;70664;51.472;5.712;2023-08-30T06:32:36;2.40;;;1.90;;
42104;SDS011;70664;51.472;5.712;2023-08-30T06:35:02;2.47;;;2.10;;
42104;SDS011;70664;51.472;5.712;2023-08-30T06:37:29;2.05;;;1.65;;
42104;SDS011;70664;51.472;5.712;2023-08-30T06:39:54;1.83;;;1.52;;
42104;SDS011;70664;51.472;5.712;2023-08-30T06:42:20;2.42;;;1.90;;
42104;SDS011;70664;51.472;5.712;2023-08-30T06:44:46;2.63;;;1.80;;
42104;SDS011;70664;51.472;5.712;2023-08-30T06:47:12;2.45;;;1.83;;
42104;SDS011;70664;51.472;5.712;2023-08-30T06:49:37;2.08;;;1.73;;
42104;SDS011;70664;51.472;5.712;2023-08-30T06:52:03;2.70;;;1.80;;
42104;SDS011;70664;51.472;5.712;2023-08-30T06:54:33;3.13;;;1.90;;
42104;SDS011;70664;51.472;5.712;2023-08-30T06:57:00;2.47;;;1.90;;
42104;SDS011;70664;51.472;5.712;2023-08-30T06:59:27;2.92;;;1.92;;
42104;SDS011;70664;51.472;5.712;2023-08-30T07:01:53;2.30;;;1.98;;
42104;SDS011;70664;51.472;5.712;2023-08-30T07:04:19;2.28;;;1.85;;
42104;SDS011;70664;51.472;5.712;2023-08-30T07:06:45;2.30;;;1.83;;
42104;SDS011;70664;51.472;5.712;2023-08-30T07:09:11;1.60;;;1.50;;
42104;SDS011;70664;51.472;5.712;2023-08-30T07:11:37;3.42;;;1.90;;
42104;SDS011;70664;51.472;5.712;2023-08-30T07:14:03;2.97;;;1.85;;
42104;SDS011;70664;51.472;5.712;2023-08-30T07:16:29;2.75;;;1.73;;
42104;SDS011;70664;51.472;5.712;2023-08-30T07:18:57;2.55;;;1.80;;
42104;SDS011;70664;51.472;5.712;2023-08-30T07:21:23;1.90;;;1.70;;
42104;SDS011;70664;51.472;5.712;2023-08-30T07:23:49;2.33;;;1.85;;
42104;SDS011;70664;51.472;5.712;2023-08-30T07:26:15;3.78;;;1.80;;
42104;SDS011;70664;51.472;5.712;2023-08-30T07:28:41;2.33;;;1.80;;
42104;SDS011;70664;51.472;5.712;2023-08-30T07:31:08;3.65;;;1.90;;
42104;SDS011;70664;51.472;5.712;2023-08-30T07:33:34;4.18;;;2.05;;
42104;SDS011;70664;51.472;5.712;2023-08-30T07:36:00;4.28;;;2.00;;
42104;SDS011;70664;51.472;5.712;2023-08-30T07:38:27;3.50;;;2.00;;
42104;SDS011;70664;51.472;5.712;2023-08-30T07:40:53;3.28;;;2.08;;
42104;SDS011;70664;51.472;5.712;2023-08-30T07:43:19;3.17;;;1.77;;
42104;SDS011;70664;51.472;5.712;2023-08-30T07:45:45;3.83;;;1.98;;
42104;SDS011;70664;51.472;5.712;2023-08-30T07:48:10;3.55;;;1.95;;
42104;SDS011;70664;51.472;5.712;2023-08-30T07:50:37;4.35;;;2.35;;
42104;SDS011;70664;51.472;5.712;2023-08-30T07:53:02;2.78;;;1.90;;
42104;SDS011;70664;51.472;5.712;2023-08-30T07:55:28;3.38;;;1.88;;
42104;SDS011;70664;51.472;5.712;2023-08-30T07:57:54;2.58;;;1.88;;
42104;SDS011;70664;51.472;5.712;2023-08-30T08:00:20;7.65;;;2.10;;
42104;SDS011;70664;51.472;5.712;2023-08-30T08:02:46;3.88;;;2.33;;
42104;SDS011;70664;51.472;5.712;2023-08-30T08:05:12;5.25;;;2.30;;
42104;SDS011;70664;51.472;5.712;2023-08-30T08:07:38;5.72;;;2.47;;
42104;SDS011;70664;51.472;5.712;2023-08-30T08:10:05;3.65;;;2.08;;
42104;SDS011;70664;51.472;5.712;2023-08-30T08:12:32;4.22;;;2.30;;
42104;SDS011;70664;51.472;5.712;2023-08-30T08:14:58;3.67;;;1.90;;
42104;SDS011;70664;51.472;5.712;2023-08-30T08:17:24;3.28;;;1.98;;
42104;SDS011;70664;51.472;5.712;2023-08-30T08:19:50;3.55;;;2.13;;
42104;SDS011;70664;51.472;5.712;2023-08-30T08:22:16;5.47;;;2.60;;
42104;SDS011;70664;51.472;5.712;2023-08-30T08:24:42;7.70;;;3.00;;
42104;SDS011;70664;51.472;5.712;2023-08-30T08:27:11;9.27;;;3.80;;
42104;SDS011;70664;51.472;5.712;2023-08-30T08:29:38;7.40;;;3.13;;
42104;SDS011;70664;51.472;5.712;2023-08-30T08:32:03;9.85;;;3.45;;
42104;SDS011;70664;51.472;5.712;2023-08-30T08:34:30;9.93;;;3.42;;
42104;SDS011;70664;51.472;5.712;2023-08-30T08:36:55;6.85;;;2.97;;
42104;SDS011;70664;51.472;5.712;2023-08-30T08:39:21;9.45;;;2.92;;
42104;SDS011;70664;51.472;5.712;2023-08-30T08:41:47;8.43;;;2.78;;
42104;SDS011;70664;51.472;5.712;2023-08-30T08:44:13;6.95;;;2.92;;
42104;SDS011;70664;51.472;5.712;2023-08-30T08:46:40;8.52;;;3.33;;
42104;SDS011;70664;51.472;5.712;2023-08-30T08:49:14;10.48;;;2.80;;
42104;SDS011;70664;51.472;5.712;2023-08-30T08:54:10;10.18;;;3.33;;
42104;SDS011;70664;51.472;5.712;2023-08-30T08:56:38;7.25;;;3.30;;
42104;SDS011;70664;51.472;5.712;2023-08-30T08:59:05;6.80;;;3.08;;
42104;SDS011;70664;51.472;5.712;2023-08-30T09:01:33;11.13;;;3.80;;
42104;SDS011;70664;51.472;5.712;2023-08-30T09:04:08;8.52;;;3.58;;
42104;SDS011;70664;51.472;5.712;2023-08-30T09:06:36;6.20;;;3.28;;
42104;SDS011;70664;51.472;5.712;2023-08-30T09:09:04;5.65;;;3.05;;
42104;SDS011;70664;51.472;5.712;2023-08-30T09:11:31;9.73;;;3.20;;
42104;SDS011;70664;51.472;5.712;2023-08-30T09:13:57;7.18;;;3.00;;
42104;SDS011;70664;51.472;5.712;2023-08-30T09:16:23;5.90;;;3.08;;
42104;SDS011;70664;51.472;5.712;2023-08-30T09:18:59;6.70;;;3.03;;
42104;SDS011;70664;51.472;5.712;2023-08-30T09:21:26;6.53;;;3.60;;
42104;SDS011;70664;51.472;5.712;2023-08-30T09:24:02;5.15;;;3.28;;
42104;SDS011;70664;51.472;5.712;2023-08-30T09:26:30;6.50;;;3.15;;
42104;SDS011;70664;51.472;5.712;2023-08-30T09:29:02;7.53;;;3.60;;
42104;SDS011;70664;51.472;5.712;2023-08-30T09:31:36;5.30;;;3.08;;
42104;SDS011;70664;51.472;5.712;2023-08-30T09:34:03;7.32;;;3.13;;
42104;SDS011;70664;51.472;5.712;2023-08-30T09:36:36;7.50;;;2.72;;
42104;SDS011;70664;51.472;5.712;2023-08-30T09:39:09;5.90;;;3.17;;
42104;SDS011;70664;51.472;5.712;2023-08-30T09:41:44;9.35;;;2.72;;
42104;SDS011;70664;51.472;5.712;2023-08-30T09:44:13;5.18;;;2.80;;
42104;SDS011;70664;51.472;5.712;2023-08-30T09:46:50;4.63;;;2.80;;
42104;SDS011;70664;51.472;5.712;2023-08-30T09:49:20;8.23;;;3.03;;
42104;SDS011;70664;51.472;5.712;2023-08-30T09:51:49;8.48;;;3.17;;
42104;SDS011;70664;51.472;5.712;2023-08-30T09:54:20;4.53;;;2.92;;
42104;SDS011;70664;51.472;5.712;2023-08-30T09:56:51;7.18;;;3.30;;
42104;SDS011;70664;51.472;5.712;2023-08-30T09:59:21;4.13;;;2.92;;
42104;SDS011;70664;51.472;5.712;2023-08-30T10:01:48;9.57;;;3.08;;
42104;SDS011;70664;51.472;5.712;2023-08-30T10:04:17;6.57;;;3.28;;
42104;SDS011;70664;51.472;5.712;2023-08-30T10:06:45;6.35;;;2.85;;
42104;SDS011;70664;51.472;5.712;2023-08-30T10:09:12;5.93;;;2.75;;
42104;SDS011;70664;51.472;5.712;2023-08-30T10:11:40;6.80;;;2.80;;
42104;SDS011;70664;51.472;5.712;2023-08-30T10:14:06;7.50;;;3.00;;
42104;SDS011;70664;51.472;5.712;2023-08-30T10:16:45;4.43;;;2.63;;
42104;SDS011;70664;51.472;5.712;2023-08-30T10:24:41;4.28;;;2.65;;
42104;SDS011;70664;51.472;5.712;2023-08-30T10:27:21;4.30;;;2.45;;
42104;SDS011;70664;51.472;5.712;2023-08-30T10:29:49;6.35;;;2.60;;
42104;SDS011;70664;51.472;5.712;2023-08-30T10:32:19;3.55;;;2.55;;
42104;SDS011;70664;51.472;5.712;2023-08-30T10:34:47;4.95;;;2.55;;
42104;SDS011;70664;51.472;5.712;2023-08-30T10:37:14;7.85;;;2.80;;
42104;SDS011;70664;51.472;5.712;2023-08-30T10:39:41;5.72;;;2.42;;
42104;SDS011;70664;51.472;5.712;2023-08-30T10:42:14;4.72;;;2.47;;
42104;SDS011;70664;51.472;5.712;2023-08-30T10:44:51;4.00;;;2.55;;
42104;SDS011;70664;51.472;5.712;2023-08-30T10:47:23;5.00;;;2.50;;
42104;SDS011;70664;51.472;5.712;2023-08-30T10:49:53;3.03;;;2.08;;
42104;SDS011;70664;51.472;5.712;2023-08-30T10:52:20;3.03;;;2.03;;
42104;SDS011;70664;51.472;5.712;2023-08-30T10:54:47;4.93;;;2.72;;
42104;SDS011;70664;51.472;5.712;2023-08-30T10:57:15;4.22;;;2.88;;
42104;SDS011;70664;51.472;5.712;2023-08-30T11:02:43;4.00;;;2.45;;
42104;SDS011;70664;51.472;5.712;2023-08-30T11:05:12;7.32;;;2.50;;
42104;SDS011;70664;51.472;5.712;2023-08-30T11:07:40;4.18;;;2.60;;
42104;SDS011;70664;51.472;5.712;2023-08-30T11:10:06;3.88;;;2.58;;
42104;SDS011;70664;51.472;5.712;2023-08-30T11:12:33;3.95;;;2.47;;
42104;SDS011;70664;51.472;5.712;2023-08-30T11:15:00;6.07;;;2.40;;
42104;SDS011;70664;51.472;5.712;2023-08-30T11:17:27;3.72;;;2.15;;
42104;SDS011;70664;51.472;5.712;2023-08-30T11:22:48;3.30;;;2.25;;
42104;SDS011;70664;51.472;5.712;2023-08-30T11:25:14;3.22;;;2.03;;
42104;SDS011;70664;51.472;5.712;2023-08-30T11:27:41;3.20;;;1.92;;
42104;SDS011;70664;51.472;5.712;2023-08-30T11:30:08;4.88;;;2.35;;
42104;SDS011;70664;51.472;5.712;2023-08-30T11:32:36;3.83;;;2.33;;
42104;SDS011;70664;51.472;5.712;2023-08-30T11:35:04;4.22;;;2.22;;
42104;SDS011;70664;51.472;5.712;2023-08-30T11:37:31;3.60;;;2.13;;
42104;SDS011;70664;51.472;5.712;2023-08-30T11:39:58;3.45;;;2.20;;
42104;SDS011;70664;51.472;5.712;2023-08-30T11:42:25;4.45;;;2.30;;
42104;SDS011;70664;51.472;5.712;2023-08-30T11:44:51;2.97;;;2.03;;
42104;SDS011;70664;51.472;5.712;2023-08-30T11:47:18;6.00;;;2.20;;
42104;SDS011;70664;51.472;5.712;2023-08-30T11:49:56;3.35;;;1.85;;
42104;SDS011;70664;51.472;5.712;2023-08-30T11:52:24;4.45;;;2.10;;
42104;SDS011;70664;51.472;5.712;2023-08-30T11:54:51;6.38;;;1.75;;
42104;SDS011;70664;51.472;5.712;2023-08-30T11:57:18;3.20;;;1.80;;
42104;SDS011;70664;51.472;5.712;2023-08-30T11:59:44;6.28;;;2.50;;
42104;SDS011;70664;51.472;5.712;2023-08-30T12:02:13;4.57;;;2.00;;
42104;SDS011;70664;51.472;5.712;2023-08-30T12:04:41;6.70;;;2.35;;
42104;SDS011;70664;51.472;5.712;2023-08-30T12:07:08;4.18;;;2.28;;
42104;SDS011;70664;51.472;5.712;2023-08-30T12:09:35;6.13;;;2.40;;
42104;SDS011;70664;51.472;5.712;2023-08-30T12:12:11;5.80;;;2.40;;
42104;SDS011;70664;51.472;5.712;2023-08-30T12:14:37;5.07;;;2.45;;
42104;SDS011;70664;51.472;5.712;2023-08-30T12:17:03;4.90;;;2.88;;
42104;SDS011;70664;51.472;5.712;2023-08-30T12:19:33;3.22;;;2.50;;
42104;SDS011;70664;51.472;5.712;2023-08-30T12:22:03;3.58;;;2.70;;
42104;SDS011;70664;51.472;5.712;2023-08-30T12:24:40;3.58;;;2.50;;
42104;SDS011;70664;51.472;5.712;2023-08-30T12:27:09;4.35;;;2.88;;
42104;SDS011;70664;51.472;5.712;2023-08-30T12:29:35;7.65;;;3.40;;
42104;SDS011;70664;51.472;5.712;2023-08-30T12:32:01;8.32;;;3.47;;
42104;SDS011;70664;51.472;5.712;2023-08-30T12:34:28;4.07;;;3.03;;
42104;SDS011;70664;51.472;5.712;2023-08-30T12:36:53;6.00;;;2.85;;
42104;SDS011;70664;51.472;5.712;2023-08-30T12:39:20;6.05;;;2.80;;
42104;SDS011;70664;51.472;5.712;2023-08-30T12:41:45;10.40;;;3.10;;
42104;SDS011;70664;51.472;5.712;2023-08-30T12:44:12;6.07;;;2.88;;
42104;SDS011;70664;51.472;5.712;2023-08-30T12:46:38;4.10;;;2.70;;
42104;SDS011;70664;51.472;5.712;2023-08-30T12:49:03;6.22;;;2.70;;
42104;SDS011;70664;51.472;5.712;2023-08-30T12:51:30;5.05;;;2.70;;
42104;SDS011;70664;51.472;5.712;2023-08-30T12:53:56;7.32;;;2.58;;
42104;SDS011;70664;51.472;5.712;2023-08-30T12:56:21;7.00;;;2.25;;
42104;SDS011;70664;51.472;5.712;2023-08-30T12:58:47;8.35;;;2.67;;
42104;SDS011;70664;51.472;5.712;2023-08-30T13:01:13;6.18;;;2.42;;
42104;SDS011;70664;51.472;5.712;2023-08-30T13:03:39;9.15;;;2.67;;
42104;SDS011;70664;51.472;5.712;2023-08-30T13:06:04;8.02;;;2.50;;
42104;SDS011;70664;51.472;5.712;2023-08-30T13:08:31;5.75;;;2.45;;
42104;SDS011;70664;51.472;5.712;2023-08-30T13:10:59;6.22;;;2.20;;
42104;SDS011;70664;51.472;5.712;2023-08-30T13:13:25;8.40;;;2.13;;
42104;SDS011;70664;51.472;5.712;2023-08-30T13:15:51;10.25;;;2.83;;
42104;SDS011;70664;51.472;5.712;2023-08-30T13:18:17;8.30;;;3.00;;
42104;SDS011;70664;51.472;5.712;2023-08-30T13:20:43;7.35;;;2.42;;
42104;SDS011;70664;51.472;5.712;2023-08-30T13:23:09;7.80;;;2.58;;
42104;SDS011;70664;51.472;5.712;2023-08-30T13:25:37;7.15;;;2.60;;
42104;SDS011;70664;51.472;5.712;2023-08-30T13:28:06;5.45;;;2.30;;
42104;SDS011;70664;51.472;5.712;2023-08-30T13:30:32;10.18;;;2.40;;
42104;SDS011;70664;51.472;5.712;2023-08-30T13:32:58;8.93;;;2.08;;
42104;SDS011;70664;51.472;5.712;2023-08-30T13:35:24;6.80;;;2.30;;
42104;SDS011;70664;51.472;5.712;2023-08-30T13:37:50;5.38;;;2.30;;
42104;SDS011;70664;51.472;5.712;2023-08-30T13:40:16;9.40;;;2.13;;
42104;SDS011;70664;51.472;5.712;2023-08-30T13:42:42;6.38;;;2.30;;
42104;SDS011;70664;51.472;5.712;2023-08-30T13:45:08;7.72;;;1.98;;
42104;SDS011;70664;51.472;5.712;2023-08-30T13:47:34;10.45;;;2.20;;
42104;SDS011;70664;51.472;5.712;2023-08-30T13:50:00;9.18;;;2.70;;
42104;SDS011;70664;51.472;5.712;2023-08-30T13:52:28;13.18;;;2.50;;
42104;SDS011;70664;51.472;5.712;2023-08-30T13:54:55;5.40;;;1.88;;
42104;SDS011;70664;51.472;5.712;2023-08-30T13:57:21;4.47;;;2.10;;
42104;SDS011;70664;51.472;5.712;2023-08-30T13:59:47;7.05;;;2.28;;
42104;SDS011;70664;51.472;5.712;2023-08-30T14:02:13;7.57;;;2.05;;
42104;SDS011;70664;51.472;5.712;2023-08-30T14:04:39;6.38;;;2.15;;
42104;SDS011;70664;51.472;5.712;2023-08-30T14:07:05;9.02;;;2.00;;
42104;SDS011;70664;51.472;5.712;2023-08-30T14:09:30;7.18;;;2.10;;
42104;SDS011;70664;51.472;5.712;2023-08-30T14:11:56;6.70;;;2.30;;
42104;SDS011;70664;51.472;5.712;2023-08-30T14:14:22;11.10;;;2.40;;
42104;SDS011;70664;51.472;5.712;2023-08-30T14:16:48;7.18;;;2.10;;
42104;SDS011;70664;51.472;5.712;2023-08-30T14:19:14;9.57;;;2.35;;
42104;SDS011;70664;51.472;5.712;2023-08-30T14:21:41;7.68;;;2.30;;
42104;SDS011;70664;51.472;5.712;2023-08-30T14:24:07;13.02;;;2.10;;
42104;SDS011;70664;51.472;5.712;2023-08-30T14:26:33;10.77;;;2.00;;
42104;SDS011;70664;51.472;5.712;2023-08-30T14:28:59;9.05;;;2.03;;
42104;SDS011;70664;51.472;5.712;2023-08-30T14:31:25;11.52;;;2.30;;
42104;SDS011;70664;51.472;5.712;2023-08-30T14:33:53;7.57;;;1.70;;
42104;SDS011;70664;51.472;5.712;2023-08-30T14:36:22;6.78;;;1.85;;
42104;SDS011;70664;51.472;5.712;2023-08-30T14:38:48;5.43;;;1.55;;
42104;SDS011;70664;51.472;5.712;2023-08-30T14:41:13;8.00;;;2.00;;
42104;SDS011;70664;51.472;5.712;2023-08-30T14:43:41;8.60;;;2.10;;
42104;SDS011;70664;51.472;5.712;2023-08-30T14:46:08;5.95;;;1.95;;
42104;SDS011;70664;51.472;5.712;2023-08-30T14:48:34;7.93;;;1.95;;
42104;SDS011;70664;51.472;5.712;2023-08-30T14:51:00;9.75;;;1.80;;
42104;SDS011;70664;51.472;5.712;2023-08-30T14:53:27;5.70;;;2.00;;
42104;SDS011;70664;51.472;5.712;2023-08-30T14:55:54;6.22;;;1.90;;
42104;SDS011;70664;51.472;5.712;2023-08-30T14:58:20;12.00;;;2.05;;
42104;SDS011;70664;51.472;5.712;2023-08-30T15:00:47;8.48;;;2.30;;
42104;SDS011;70664;51.472;5.712;2023-08-30T15:03:14;8.77;;;2.15;;
42104;SDS011;70664;51.472;5.712;2023-08-30T15:05:40;5.63;;;1.67;;
42104;SDS011;70664;51.472;5.712;2023-08-30T15:08:06;4.97;;;1.75;;
42104;SDS011;70664;51.472;5.712;2023-08-30T15:10:32;9.85;;;2.00;;
42104;SDS011;70664;51.472;5.712;2023-08-30T15:12:58;4.03;;;1.67;;
42104;SDS011;70664;51.472;5.712;2023-08-30T15:15:23;5.60;;;1.67;;